sensor_id;sensor_type;location;lat;lon;timestamp;P1;durP1;ratioP1;P2;durP2;ratioP2
65755;SDS011;69208;47.502;18.940;2023-10-19T00:00:38;10.70;;;6.93;;
65755;SDS011;69208;47.502;18.940;2023-10-19T00:01:42;14.45;;;8.02;;
65755;SDS011;69208;47.502;18.940;2023-10-19T00:02:46;13.62;;;7.43;;
65755;SDS011;69208;47.502;18.940;2023-10-19T00:03:54;10.73;;;7.37;;
65755;SDS011;69208;47.502;18.940;2023-10-19T00:04:59;15.73;;;7.40;;
65755;SDS011;69208;47.502;18.940;2023-10-19T00:06:02;10.32;;;6.80;;
65755;SDS011;69208;47.502;18.940;2023-10-19T00:07:05;12.68;;;7.30;;
65755;SDS011;69208;47.502;18.940;2023-10-19T00:08:10;12.88;;;7.18;;
65755;SDS011;69208;47.502;18.940;2023-10-19T00:09:23;11.38;;;6.75;;
65755;SDS011;69208;47.502;18.940;2023-10-19T00:10:28;13.75;;;7.93;;
65755;SDS011;69208;47.502;18.940;2023-10-19T00:11:36;12.48;;;7.30;;
65755;SDS011;69208;47.502;18.940;2023-10-19T00:12:39;15.60;;;7.87;;
65755;SDS011;69208;47.502;18.940;2023-10-19T00:13:42;10.00;;;7.03;;
65755;SDS011;69208;47.502;18.940;2023-10-19T00:14:46;13.62;;;7.68;;
65755;SDS011;69208;47.502;18.940;2023-10-19T00:15:50;16.62;;;8.07;;
65755;SDS011;69208;47.502;18.940;2023-10-19T00:16:56;13.55;;;8.25;;
65755;SDS011;69208;47.502;18.940;2023-10-19T00:18:03;12.95;;;7.12;;
65755;SDS011;69208;47.502;18.940;2023-10-19T00:19:18;14.00;;;8.05;;
65755;SDS011;69208;47.502;18.940;2023-10-19T00:20:23;11.75;;;6.85;;
65755;SDS011;69208;47.502;18.940;2023-10-19T00:21:50;11.57;;;7.53;;
65755;SDS011;69208;47.502;18.940;2023-10-19T00:22:53;12.73;;;7.93;;
65755;SDS011;69208;47.502;18.940;2023-10-19T00:23:58;12.57;;;8.23;;
65755;SDS011;69208;47.502;18.940;2023-10-19T00:25:07;11.20;;;7.97;;
65755;SDS011;69208;47.502;18.940;2023-10-19T00:26:12;15.45;;;8.15;;
65755;SDS011;69208;47.502;18.940;2023-10-19T00:27:22;19.05;;;8.75;;
65755;SDS011;69208;47.502;18.940;2023-10-19T00:28:26;12.23;;;8.32;;
65755;SDS011;69208;47.502;18.940;2023-10-19T00:29:30;15.90;;;9.23;;
65755;SDS011;69208;47.502;18.940;2023-10-19T00:30:34;14.52;;;9.50;;
65755;SDS011;69208;47.502;18.940;2023-10-19T00:31:40;12.65;;;9.15;;
65755;SDS011;69208;47.502;18.940;2023-10-19T00:32:44;10.98;;;7.35;;
65755;SDS011;69208;47.502;18.940;2023-10-19T00:33:49;13.68;;;8.98;;
65755;SDS011;69208;47.502;18.940;2023-10-19T00:34:57;11.80;;;9.38;;
65755;SDS011;69208;47.502;18.940;2023-10-19T00:36:08;12.77;;;9.38;;
65755;SDS011;69208;47.502;18.940;2023-10-19T00:37:12;14.48;;;9.23;;
65755;SDS011;69208;47.502;18.940;2023-10-19T00:38:21;15.05;;;9.95;;
65755;SDS011;69208;47.502;18.940;2023-10-19T00:39:42;15.70;;;9.55;;
65755;SDS011;69208;47.502;18.940;2023-10-19T00:40:53;13.18;;;9.73;;
65755;SDS011;69208;47.502;18.940;2023-10-19T00:42:01;14.95;;;9.85;;
65755;SDS011;69208;47.502;18.940;2023-10-19T00:43:04;14.23;;;9.65;;
65755;SDS011;69208;47.502;18.940;2023-10-19T00:44:13;14.48;;;9.00;;
65755;SDS011;69208;47.502;18.940;2023-10-19T00:45:38;15.32;;;10.00;;
65755;SDS011;69208;47.502;18.940;2023-10-19T00:46:43;15.38;;;10.07;;
65755;SDS011;69208;47.502;18.940;2023-10-19T00:47:52;17.65;;;10.27;;
65755;SDS011;69208;47.502;18.940;2023-10-19T00:48:56;15.35;;;10.15;;
65755;SDS011;69208;47.502;18.940;2023-10-19T00:50:06;20.15;;;10.70;;
65755;SDS011;69208;47.502;18.940;2023-10-19T00:51:16;15.82;;;10.80;;
65755;SDS011;69208;47.502;18.940;2023-10-19T00:52:30;17.30;;;10.40;;
65755;SDS011;69208;47.502;18.940;2023-10-19T00:53:35;20.30;;;11.15;;
65755;SDS011;69208;47.502;18.940;2023-10-19T00:54:42;16.15;;;10.80;;
65755;SDS011;69208;47.502;18.940;2023-10-19T00:55:49;15.98;;;11.25;;
65755;SDS011;69208;47.502;18.940;2023-10-19T00:56:54;14.82;;;10.85;;
65755;SDS011;69208;47.502;18.940;2023-10-19T00:58:00;23.87;;;11.10;;
65755;SDS011;69208;47.502;18.940;2023-10-19T00:59:12;15.68;;;11.00;;
65755;SDS011;69208;47.502;18.940;2023-10-19T01:00:17;17.40;;;11.55;;
65755;SDS011;69208;47.502;18.940;2023-10-19T01:01:32;15.05;;;11.27;;
65755;SDS011;69208;47.502;18.940;2023-10-19T01:02:43;16.70;;;11.70;;
65755;SDS011;69208;47.502;18.940;2023-10-19T01:03:49;16.42;;;11.43;;
65755;SDS011;69208;47.502;18.940;2023-10-19T01:04:58;20.00;;;11.10;;
65755;SDS011;69208;47.502;18.940;2023-10-19T01:06:08;15.88;;;12.65;;
65755;SDS011;69208;47.502;18.940;2023-10-19T01:07:16;17.95;;;12.05;;
65755;SDS011;69208;47.502;18.940;2023-10-19T01:08:30;16.75;;;12.70;;
65755;SDS011;69208;47.502;18.940;2023-10-19T01:09:44;16.23;;;13.20;;
65755;SDS011;69208;47.502;18.940;2023-10-19T01:10:47;17.65;;;12.88;;
65755;SDS011;69208;47.502;18.940;2023-10-19T01:11:55;22.23;;;13.35;;
65755;SDS011;69208;47.502;18.940;2023-10-19T01:13:03;18.48;;;13.77;;
65755;SDS011;69208;47.502;18.940;2023-10-19T01:14:18;21.67;;;14.07;;
65755;SDS011;69208;47.502;18.940;2023-10-19T01:15:24;20.27;;;14.13;;
65755;SDS011;69208;47.502;18.940;2023-10-19T01:16:30;16.60;;;13.32;;
65755;SDS011;69208;47.502;18.940;2023-10-19T01:17:35;21.25;;;13.48;;
65755;SDS011;69208;47.502;18.940;2023-10-19T01:18:43;16.20;;;13.43;;
65755;SDS011;69208;47.502;18.940;2023-10-19T01:19:46;15.57;;;12.68;;
65755;SDS011;69208;47.502;18.940;2023-10-19T01:20:49;16.67;;;13.57;;
65755;SDS011;69208;47.502;18.940;2023-10-19T01:21:58;22.58;;;13.85;;
65755;SDS011;69208;47.502;18.940;2023-10-19T01:23:06;16.92;;;13.02;;
65755;SDS011;69208;47.502;18.940;2023-10-19T01:24:12;22.17;;;14.00;;
65755;SDS011;69208;47.502;18.940;2023-10-19T01:25:20;16.87;;;13.82;;
65755;SDS011;69208;47.502;18.940;2023-10-19T01:26:37;21.60;;;14.77;;
65755;SDS011;69208;47.502;18.940;2023-10-19T01:27:40;22.70;;;15.05;;
65755;SDS011;69208;47.502;18.940;2023-10-19T01:28:44;19.92;;;15.07;;
65755;SDS011;69208;47.502;18.940;2023-10-19T01:29:50;18.25;;;15.18;;
65755;SDS011;69208;47.502;18.940;2023-10-19T01:30:54;24.17;;;15.90;;
65755;SDS011;69208;47.502;18.940;2023-10-19T01:31:58;17.05;;;14.87;;
65755;SDS011;69208;47.502;18.940;2023-10-19T01:33:14;19.77;;;15.90;;
65755;SDS011;69208;47.502;18.940;2023-10-19T01:34:21;18.50;;;16.25;;
65755;SDS011;69208;47.502;18.940;2023-10-19T01:35:24;22.30;;;16.73;;
65755;SDS011;69208;47.502;18.940;2023-10-19T01:36:29;21.65;;;17.00;;
65755;SDS011;69208;47.502;18.940;2023-10-19T01:37:35;20.17;;;16.85;;
65755;SDS011;69208;47.502;18.940;2023-10-19T01:38:41;21.90;;;17.70;;
65755;SDS011;69208;47.502;18.940;2023-10-19T01:39:44;20.12;;;17.90;;
65755;SDS011;69208;47.502;18.940;2023-10-19T01:40:48;21.77;;;18.65;;
65755;SDS011;69208;47.502;18.940;2023-10-19T01:41:54;23.80;;;18.40;;
65755;SDS011;69208;47.502;18.940;2023-10-19T01:42:57;25.25;;;18.70;;
65755;SDS011;69208;47.502;18.940;2023-10-19T01:44:03;24.63;;;19.48;;
65755;SDS011;69208;47.502;18.940;2023-10-19T01:45:09;23.62;;;20.00;;
65755;SDS011;69208;47.502;18.940;2023-10-19T01:46:15;23.35;;;19.87;;
65755;SDS011;69208;47.502;18.940;2023-10-19T01:47:34;28.38;;;20.50;;
65755;SDS011;69208;47.502;18.940;2023-10-19T01:48:39;28.50;;;22.35;;
65755;SDS011;69208;47.502;18.940;2023-10-19T01:49:46;24.75;;;20.37;;
65755;SDS011;69208;47.502;18.940;2023-10-19T01:50:54;24.25;;;20.77;;
65755;SDS011;69208;47.502;18.940;2023-10-19T01:51:57;22.90;;;20.40;;
65755;SDS011;69208;47.502;18.940;2023-10-19T01:53:00;30.10;;;20.95;;
65755;SDS011;69208;47.502;18.940;2023-10-19T01:54:15;24.23;;;21.58;;
65755;SDS011;69208;47.502;18.940;2023-10-19T01:55:21;26.08;;;21.40;;
65755;SDS011;69208;47.502;18.940;2023-10-19T01:56:24;26.92;;;21.80;;
65755;SDS011;69208;47.502;18.940;2023-10-19T01:57:27;27.25;;;22.33;;
65755;SDS011;69208;47.502;18.940;2023-10-19T01:58:31;25.30;;;21.10;;
65755;SDS011;69208;47.502;18.940;2023-10-19T01:59:39;25.83;;;21.70;;
65755;SDS011;69208;47.502;18.940;2023-10-19T02:00:42;22.80;;;20.35;;
65755;SDS011;69208;47.502;18.940;2023-10-19T02:01:46;25.95;;;21.52;;
65755;SDS011;69208;47.502;18.940;2023-10-19T02:02:52;24.70;;;21.33;;
65755;SDS011;69208;47.502;18.940;2023-10-19T02:03:56;23.05;;;20.42;;
65755;SDS011;69208;47.502;18.940;2023-10-19T02:05:02;28.55;;;22.00;;
65755;SDS011;69208;47.502;18.940;2023-10-19T02:06:13;27.15;;;21.70;;
65755;SDS011;69208;47.502;18.940;2023-10-19T02:07:20;23.65;;;20.67;;
65755;SDS011;69208;47.502;18.940;2023-10-19T02:08:27;28.08;;;21.50;;
65755;SDS011;69208;47.502;18.940;2023-10-19T02:09:30;27.00;;;22.80;;
65755;SDS011;69208;47.502;18.940;2023-10-19T02:10:35;25.75;;;20.88;;
65755;SDS011;69208;47.502;18.940;2023-10-19T02:11:39;27.15;;;23.00;;
65755;SDS011;69208;47.502;18.940;2023-10-19T02:12:45;26.67;;;22.77;;
65755;SDS011;69208;47.502;18.940;2023-10-19T02:13:52;26.33;;;22.33;;
65755;SDS011;69208;47.502;18.940;2023-10-19T02:14:57;25.10;;;22.40;;
65755;SDS011;69208;47.502;18.940;2023-10-19T02:16:00;25.52;;;21.62;;
65755;SDS011;69208;47.502;18.940;2023-10-19T02:17:03;30.83;;;23.20;;
65755;SDS011;69208;47.502;18.940;2023-10-19T02:18:06;29.23;;;22.85;;
65755;SDS011;69208;47.502;18.940;2023-10-19T02:19:11;32.30;;;24.92;;
65755;SDS011;69208;47.502;18.940;2023-10-19T02:20:14;28.30;;;23.67;;
65755;SDS011;69208;47.502;18.940;2023-10-19T02:21:39;27.13;;;23.58;;
65755;SDS011;69208;47.502;18.940;2023-10-19T02:22:42;28.27;;;24.45;;
65755;SDS011;69208;47.502;18.940;2023-10-19T02:23:46;30.52;;;25.73;;
65755;SDS011;69208;47.502;18.940;2023-10-19T02:24:49;26.80;;;22.90;;
65755;SDS011;69208;47.502;18.940;2023-10-19T02:25:53;27.48;;;23.73;;
65755;SDS011;69208;47.502;18.940;2023-10-19T02:26:57;29.87;;;24.12;;
65755;SDS011;69208;47.502;18.940;2023-10-19T02:28:00;26.87;;;23.95;;
65755;SDS011;69208;47.502;18.940;2023-10-19T02:29:05;27.10;;;24.08;;
65755;SDS011;69208;47.502;18.940;2023-10-19T02:30:12;26.33;;;23.52;;
65755;SDS011;69208;47.502;18.940;2023-10-19T02:31:16;30.73;;;24.23;;
65755;SDS011;69208;47.502;18.940;2023-10-19T02:32:28;30.85;;;24.08;;
65755;SDS011;69208;47.502;18.940;2023-10-19T02:33:31;28.33;;;25.10;;
65755;SDS011;69208;47.502;18.940;2023-10-19T02:34:35;34.65;;;25.17;;
65755;SDS011;69208;47.502;18.940;2023-10-19T02:35:39;26.33;;;23.58;;
65755;SDS011;69208;47.502;18.940;2023-10-19T02:36:44;29.58;;;24.73;;
65755;SDS011;69208;47.502;18.940;2023-10-19T02:37:47;28.55;;;25.37;;
65755;SDS011;69208;47.502;18.940;2023-10-19T02:38:51;29.52;;;24.83;;
65755;SDS011;69208;47.502;18.940;2023-10-19T02:39:55;27.80;;;24.92;;
65755;SDS011;69208;47.502;18.940;2023-10-19T02:40:59;27.67;;;23.70;;
65755;SDS011;69208;47.502;18.940;2023-10-19T02:42:02;26.65;;;23.85;;
65755;SDS011;69208;47.502;18.940;2023-10-19T02:43:06;25.92;;;23.08;;
65755;SDS011;69208;47.502;18.940;2023-10-19T02:44:10;26.12;;;23.33;;
65755;SDS011;69208;47.502;18.940;2023-10-19T02:45:21;26.00;;;23.17;;
65755;SDS011;69208;47.502;18.940;2023-10-19T02:46:27;27.02;;;24.30;;
65755;SDS011;69208;47.502;18.940;2023-10-19T02:47:35;28.58;;;24.42;;
65755;SDS011;69208;47.502;18.940;2023-10-19T02:48:38;25.77;;;23.05;;
65755;SDS011;69208;47.502;18.940;2023-10-19T02:49:41;27.10;;;24.23;;
65755;SDS011;69208;47.502;18.940;2023-10-19T02:50:46;25.52;;;22.92;;
65755;SDS011;69208;47.502;18.940;2023-10-19T02:51:50;24.52;;;21.95;;
65755;SDS011;69208;47.502;18.940;2023-10-19T02:52:54;27.27;;;24.33;;
65755;SDS011;69208;47.502;18.940;2023-10-19T02:53:59;27.45;;;24.17;;
65755;SDS011;69208;47.502;18.940;2023-10-19T02:55:05;24.00;;;21.50;;
65755;SDS011;69208;47.502;18.940;2023-10-19T02:56:09;27.83;;;23.30;;
65755;SDS011;69208;47.502;18.940;2023-10-19T02:57:17;26.67;;;22.55;;
65755;SDS011;69208;47.502;18.940;2023-10-19T02:58:22;23.73;;;21.10;;
65755;SDS011;69208;47.502;18.940;2023-10-19T02:59:25;25.50;;;22.80;;
65755;SDS011;69208;47.502;18.940;2023-10-19T03:00:31;25.00;;;22.40;;
65755;SDS011;69208;47.502;18.940;2023-10-19T03:01:39;24.08;;;20.60;;
65755;SDS011;69208;47.502;18.940;2023-10-19T03:02:47;23.02;;;19.37;;
65755;SDS011;69208;47.502;18.940;2023-10-19T03:03:51;22.58;;;19.52;;
65755;SDS011;69208;47.502;18.940;2023-10-19T03:04:56;21.52;;;18.55;;
65755;SDS011;69208;47.502;18.940;2023-10-19T03:06:00;22.27;;;19.87;;
65755;SDS011;69208;47.502;18.940;2023-10-19T03:07:06;21.62;;;19.15;;
65755;SDS011;69208;47.502;18.940;2023-10-19T03:08:12;19.73;;;17.65;;
65755;SDS011;69208;47.502;18.940;2023-10-19T03:09:18;21.48;;;19.00;;
65755;SDS011;69208;47.502;18.940;2023-10-19T03:10:28;23.05;;;19.40;;
65755;SDS011;69208;47.502;18.940;2023-10-19T03:11:44;25.70;;;19.85;;
65755;SDS011;69208;47.502;18.940;2023-10-19T03:12:48;26.48;;;20.88;;
65755;SDS011;69208;47.502;18.940;2023-10-19T03:13:53;21.20;;;18.87;;
65755;SDS011;69208;47.502;18.940;2023-10-19T03:14:57;22.35;;;20.05;;
65755;SDS011;69208;47.502;18.940;2023-10-19T03:16:02;24.10;;;21.05;;
65755;SDS011;69208;47.502;18.940;2023-10-19T03:17:10;22.92;;;20.40;;
65755;SDS011;69208;47.502;18.940;2023-10-19T03:18:13;23.98;;;21.35;;
65755;SDS011;69208;47.502;18.940;2023-10-19T03:19:17;23.85;;;21.25;;
65755;SDS011;69208;47.502;18.940;2023-10-19T03:20:20;25.40;;;22.55;;
65755;SDS011;69208;47.502;18.940;2023-10-19T03:21:26;28.50;;;22.10;;
65755;SDS011;69208;47.502;18.940;2023-10-19T03:22:30;26.60;;;23.25;;
65755;SDS011;69208;47.502;18.940;2023-10-19T03:23:34;28.75;;;23.87;;
65755;SDS011;69208;47.502;18.940;2023-10-19T03:24:38;26.80;;;23.77;;
65755;SDS011;69208;47.502;18.940;2023-10-19T03:25:43;29.67;;;22.95;;
65755;SDS011;69208;47.502;18.940;2023-10-19T03:26:51;28.42;;;23.83;;
65755;SDS011;69208;47.502;18.940;2023-10-19T03:27:57;26.45;;;23.55;;
65755;SDS011;69208;47.502;18.940;2023-10-19T03:29:08;27.35;;;24.42;;
65755;SDS011;69208;47.502;18.940;2023-10-19T03:30:17;29.77;;;25.17;;
65755;SDS011;69208;47.502;18.940;2023-10-19T03:31:21;28.67;;;25.58;;
65755;SDS011;69208;47.502;18.940;2023-10-19T03:32:27;29.23;;;26.12;;
65755;SDS011;69208;47.502;18.940;2023-10-19T03:34:43;26.12;;;22.27;;
65755;SDS011;69208;47.502;18.940;2023-10-19T03:35:51;27.42;;;22.70;;
65755;SDS011;69208;47.502;18.940;2023-10-19T03:36:54;26.95;;;22.30;;
65755;SDS011;69208;47.502;18.940;2023-10-19T03:37:57;26.25;;;23.45;;
65755;SDS011;69208;47.502;18.940;2023-10-19T03:39:04;28.83;;;24.35;;
65755;SDS011;69208;47.502;18.940;2023-10-19T03:40:14;28.52;;;24.83;;
65755;SDS011;69208;47.502;18.940;2023-10-19T03:41:23;28.15;;;24.60;;
65755;SDS011;69208;47.502;18.940;2023-10-19T03:42:29;28.52;;;25.35;;
65755;SDS011;69208;47.502;18.940;2023-10-19T03:43:35;29.83;;;25.45;;
65755;SDS011;69208;47.502;18.940;2023-10-19T03:44:43;26.90;;;24.00;;
65755;SDS011;69208;47.502;18.940;2023-10-19T03:45:52;27.83;;;23.90;;
65755;SDS011;69208;47.502;18.940;2023-10-19T03:46:57;28.30;;;24.80;;
65755;SDS011;69208;47.502;18.940;2023-10-19T03:48:03;27.62;;;22.75;;
65755;SDS011;69208;47.502;18.940;2023-10-19T03:49:11;26.90;;;23.95;;
65755;SDS011;69208;47.502;18.940;2023-10-19T03:50:14;28.45;;;25.45;;
65755;SDS011;69208;47.502;18.940;2023-10-19T03:51:23;32.20;;;24.05;;
65755;SDS011;69208;47.502;18.940;2023-10-19T03:52:28;27.92;;;24.55;;
65755;SDS011;69208;47.502;18.940;2023-10-19T03:53:33;28.92;;;25.77;;
65755;SDS011;69208;47.502;18.940;2023-10-19T03:54:39;30.08;;;25.83;;
65755;SDS011;69208;47.502;18.940;2023-10-19T03:55:43;32.72;;;26.35;;
65755;SDS011;69208;47.502;18.940;2023-10-19T03:56:49;30.77;;;26.23;;
65755;SDS011;69208;47.502;18.940;2023-10-19T03:57:55;32.53;;;27.02;;
65755;SDS011;69208;47.502;18.940;2023-10-19T03:58:59;31.10;;;26.35;;
65755;SDS011;69208;47.502;18.940;2023-10-19T04:00:02;33.17;;;27.67;;
65755;SDS011;69208;47.502;18.940;2023-10-19T04:01:06;32.92;;;28.23;;
65755;SDS011;69208;47.502;18.940;2023-10-19T04:02:10;31.70;;;27.10;;
65755;SDS011;69208;47.502;18.940;2023-10-19T04:03:16;34.95;;;29.48;;
65755;SDS011;69208;47.502;18.940;2023-10-19T04:04:20;32.17;;;27.13;;
65755;SDS011;69208;47.502;18.940;2023-10-19T04:05:24;34.35;;;29.08;;
65755;SDS011;69208;47.502;18.940;2023-10-19T04:06:28;34.40;;;29.00;;
65755;SDS011;69208;47.502;18.940;2023-10-19T04:07:32;33.83;;;28.60;;
65755;SDS011;69208;47.502;18.940;2023-10-19T04:08:35;38.08;;;27.37;;
65755;SDS011;69208;47.502;18.940;2023-10-19T04:09:40;33.90;;;27.35;;
65755;SDS011;69208;47.502;18.940;2023-10-19T04:11:07;30.58;;;26.30;;
65755;SDS011;69208;47.502;18.940;2023-10-19T04:12:14;30.95;;;27.05;;
65755;SDS011;69208;47.502;18.940;2023-10-19T04:13:20;33.17;;;28.30;;
65755;SDS011;69208;47.502;18.940;2023-10-19T04:14:23;34.47;;;26.08;;
65755;SDS011;69208;47.502;18.940;2023-10-19T04:15:28;32.45;;;25.80;;
65755;SDS011;69208;47.502;18.940;2023-10-19T04:16:38;30.10;;;26.20;;
65755;SDS011;69208;47.502;18.940;2023-10-19T04:17:46;30.20;;;26.35;;
65755;SDS011;69208;47.502;18.940;2023-10-19T04:18:55;30.80;;;25.58;;
65755;SDS011;69208;47.502;18.940;2023-10-19T04:19:58;27.23;;;23.67;;
65755;SDS011;69208;47.502;18.940;2023-10-19T04:21:01;24.83;;;21.20;;
65755;SDS011;69208;47.502;18.940;2023-10-19T04:22:05;28.48;;;22.70;;
65755;SDS011;69208;47.502;18.940;2023-10-19T04:23:09;26.10;;;22.67;;
65755;SDS011;69208;47.502;18.940;2023-10-19T04:24:18;26.30;;;23.15;;
65755;SDS011;69208;47.502;18.940;2023-10-19T04:25:22;27.30;;;23.20;;
65755;SDS011;69208;47.502;18.940;2023-10-19T04:26:28;26.62;;;23.30;;
65755;SDS011;69208;47.502;18.940;2023-10-19T04:27:32;26.37;;;23.40;;
65755;SDS011;69208;47.502;18.940;2023-10-19T04:28:39;26.20;;;23.35;;
65755;SDS011;69208;47.502;18.940;2023-10-19T04:29:52;29.08;;;23.17;;
65755;SDS011;69208;47.502;18.940;2023-10-19T04:30:56;28.35;;;22.77;;
65755;SDS011;69208;47.502;18.940;2023-10-19T04:32:09;26.35;;;22.27;;
65755;SDS011;69208;47.502;18.940;2023-10-19T04:33:14;24.30;;;21.30;;
65755;SDS011;69208;47.502;18.940;2023-10-19T04:34:19;26.73;;;23.42;;
65755;SDS011;69208;47.502;18.940;2023-10-19T04:35:24;24.95;;;22.20;;
65755;SDS011;69208;47.502;18.940;2023-10-19T04:36:27;24.17;;;21.58;;
65755;SDS011;69208;47.502;18.940;2023-10-19T04:37:30;20.75;;;18.55;;
65755;SDS011;69208;47.502;18.940;2023-10-19T04:38:34;25.50;;;20.52;;
65755;SDS011;69208;47.502;18.940;2023-10-19T04:39:37;23.23;;;20.12;;
65755;SDS011;69208;47.502;18.940;2023-10-19T04:40:40;22.05;;;19.77;;
65755;SDS011;69208;47.502;18.940;2023-10-19T04:41:43;25.60;;;21.05;;
65755;SDS011;69208;47.502;18.940;2023-10-19T04:42:53;24.08;;;20.55;;
65755;SDS011;69208;47.502;18.940;2023-10-19T04:43:57;20.05;;;17.55;;
65755;SDS011;69208;47.502;18.940;2023-10-19T04:45:01;20.10;;;17.08;;
65755;SDS011;69208;47.502;18.940;2023-10-19T04:46:08;22.15;;;17.75;;
65755;SDS011;69208;47.502;18.940;2023-10-19T04:47:15;20.45;;;18.10;;
65755;SDS011;69208;47.502;18.940;2023-10-19T04:48:18;18.70;;;16.05;;
65755;SDS011;69208;47.502;18.940;2023-10-19T04:49:21;20.50;;;17.70;;
65755;SDS011;69208;47.502;18.940;2023-10-19T04:50:25;24.08;;;18.20;;
65755;SDS011;69208;47.502;18.940;2023-10-19T04:51:28;19.08;;;17.08;;
65755;SDS011;69208;47.502;18.940;2023-10-19T04:52:31;19.62;;;16.70;;
65755;SDS011;69208;47.502;18.940;2023-10-19T04:53:34;21.70;;;15.90;;
65755;SDS011;69208;47.502;18.940;2023-10-19T04:54:38;18.02;;;15.60;;
65755;SDS011;69208;47.502;18.940;2023-10-19T04:55:41;19.37;;;17.27;;
65755;SDS011;69208;47.502;18.940;2023-10-19T04:56:45;20.58;;;16.33;;
65755;SDS011;69208;47.502;18.940;2023-10-19T04:57:48;18.30;;;16.17;;
65755;SDS011;69208;47.502;18.940;2023-10-19T04:58:52;18.20;;;16.20;;
65755;SDS011;69208;47.502;18.940;2023-10-19T04:59:55;20.25;;;16.62;;
65755;SDS011;69208;47.502;18.940;2023-10-19T05:00:59;22.10;;;17.23;;
65755;SDS011;69208;47.502;18.940;2023-10-19T05:02:02;20.20;;;16.35;;
65755;SDS011;69208;47.502;18.940;2023-10-19T05:03:05;19.23;;;16.90;;
65755;SDS011;69208;47.502;18.940;2023-10-19T05:04:09;19.77;;;17.08;;
65755;SDS011;69208;47.502;18.940;2023-10-19T05:05:12;20.12;;;17.20;;
65755;SDS011;69208;47.502;18.940;2023-10-19T05:06:19;23.98;;;17.75;;
65755;SDS011;69208;47.502;18.940;2023-10-19T05:07:25;18.70;;;16.62;;
65755;SDS011;69208;47.502;18.940;2023-10-19T05:08:29;19.67;;;17.35;;
65755;SDS011;69208;47.502;18.940;2023-10-19T05:09:32;20.48;;;17.02;;
65755;SDS011;69208;47.502;18.940;2023-10-19T05:10:36;20.33;;;17.35;;
65755;SDS011;69208;47.502;18.940;2023-10-19T05:11:39;20.75;;;18.23;;
65755;SDS011;69208;47.502;18.940;2023-10-19T05:12:43;19.80;;;17.65;;
65755;SDS011;69208;47.502;18.940;2023-10-19T05:13:46;21.30;;;17.87;;
65755;SDS011;69208;47.502;18.940;2023-10-19T05:14:49;22.25;;;18.60;;
65755;SDS011;69208;47.502;18.940;2023-10-19T05:15:55;20.33;;;17.60;;
65755;SDS011;69208;47.502;18.940;2023-10-19T05:16:58;23.30;;;17.75;;
65755;SDS011;69208;47.502;18.940;2023-10-19T05:18:02;18.48;;;16.50;;
65755;SDS011;69208;47.502;18.940;2023-10-19T05:19:05;21.42;;;19.00;;
65755;SDS011;69208;47.502;18.940;2023-10-19T05:20:08;19.98;;;17.87;;
65755;SDS011;69208;47.502;18.940;2023-10-19T05:21:13;21.92;;;18.12;;
65755;SDS011;69208;47.502;18.940;2023-10-19T05:22:16;22.13;;;17.30;;
65755;SDS011;69208;47.502;18.940;2023-10-19T05:23:24;20.37;;;17.83;;
65755;SDS011;69208;47.502;18.940;2023-10-19T05:24:28;25.02;;;18.48;;
65755;SDS011;69208;47.502;18.940;2023-10-19T05:25:33;19.50;;;17.37;;
65755;SDS011;69208;47.502;18.940;2023-10-19T05:26:36;19.37;;;17.35;;
65755;SDS011;69208;47.502;18.940;2023-10-19T05:27:40;20.37;;;18.17;;
65755;SDS011;69208;47.502;18.940;2023-10-19T05:28:45;22.13;;;17.85;;
65755;SDS011;69208;47.502;18.940;2023-10-19T05:29:50;20.02;;;17.65;;
65755;SDS011;69208;47.502;18.940;2023-10-19T05:30:53;21.05;;;17.77;;
65755;SDS011;69208;47.502;18.940;2023-10-19T05:31:57;19.95;;;17.15;;
65755;SDS011;69208;47.502;18.940;2023-10-19T05:33:03;20.58;;;17.37;;
65755;SDS011;69208;47.502;18.940;2023-10-19T05:34:09;22.98;;;17.75;;
65755;SDS011;69208;47.502;18.940;2023-10-19T05:35:12;22.50;;;18.62;;
65755;SDS011;69208;47.502;18.940;2023-10-19T05:36:21;23.00;;;18.33;;
65755;SDS011;69208;47.502;18.940;2023-10-19T05:37:25;20.92;;;18.20;;
65755;SDS011;69208;47.502;18.940;2023-10-19T05:38:32;20.77;;;18.62;;
65755;SDS011;69208;47.502;18.940;2023-10-19T05:39:35;20.05;;;17.92;;
65755;SDS011;69208;47.502;18.940;2023-10-19T05:40:39;20.40;;;18.20;;
65755;SDS011;69208;47.502;18.940;2023-10-19T05:41:45;20.33;;;17.12;;
65755;SDS011;69208;47.502;18.940;2023-10-19T05:42:48;21.87;;;18.48;;
65755;SDS011;69208;47.502;18.940;2023-10-19T05:43:52;20.95;;;18.75;;
65755;SDS011;69208;47.502;18.940;2023-10-19T05:44:56;21.02;;;18.60;;
65755;SDS011;69208;47.502;18.940;2023-10-19T05:46:00;20.52;;;18.25;;
65755;SDS011;69208;47.502;18.940;2023-10-19T05:47:04;21.65;;;17.85;;
65755;SDS011;69208;47.502;18.940;2023-10-19T05:48:07;20.48;;;17.92;;
65755;SDS011;69208;47.502;18.940;2023-10-19T05:49:10;20.33;;;18.10;;
65755;SDS011;69208;47.502;18.940;2023-10-19T05:50:13;20.08;;;17.98;;
65755;SDS011;69208;47.502;18.940;2023-10-19T05:51:17;24.37;;;18.85;;
65755;SDS011;69208;47.502;18.940;2023-10-19T05:52:20;23.85;;;18.85;;
65755;SDS011;69208;47.502;18.940;2023-10-19T05:53:25;20.23;;;18.12;;
65755;SDS011;69208;47.502;18.940;2023-10-19T05:54:28;21.48;;;17.52;;
65755;SDS011;69208;47.502;18.940;2023-10-19T05:55:32;25.50;;;18.48;;
65755;SDS011;69208;47.502;18.940;2023-10-19T05:56:35;20.33;;;17.48;;
65755;SDS011;69208;47.502;18.940;2023-10-19T05:57:39;21.45;;;18.87;;
65755;SDS011;69208;47.502;18.940;2023-10-19T05:58:45;21.33;;;18.73;;
65755;SDS011;69208;47.502;18.940;2023-10-19T05:59:53;21.50;;;19.00;;
65755;SDS011;69208;47.502;18.940;2023-10-19T06:01:00;23.83;;;20.10;;
65755;SDS011;69208;47.502;18.940;2023-10-19T06:02:03;22.60;;;19.30;;
65755;SDS011;69208;47.502;18.940;2023-10-19T06:03:10;32.67;;;20.45;;
65755;SDS011;69208;47.502;18.940;2023-10-19T06:04:13;22.25;;;19.92;;
65755;SDS011;69208;47.502;18.940;2023-10-19T06:05:19;22.15;;;19.15;;
65755;SDS011;69208;47.502;18.940;2023-10-19T06:06:23;21.80;;;18.48;;
65755;SDS011;69208;47.502;18.940;2023-10-19T06:07:26;21.12;;;18.75;;
65755;SDS011;69208;47.502;18.940;2023-10-19T06:08:31;21.58;;;19.23;;
65755;SDS011;69208;47.502;18.940;2023-10-19T06:09:35;20.65;;;18.48;;
65755;SDS011;69208;47.502;18.940;2023-10-19T06:10:38;21.67;;;19.20;;
65755;SDS011;69208;47.502;18.940;2023-10-19T06:11:42;22.25;;;18.48;;
65755;SDS011;69208;47.502;18.940;2023-10-19T06:12:47;20.73;;;18.52;;
65755;SDS011;69208;47.502;18.940;2023-10-19T06:13:52;23.35;;;19.52;;
65755;SDS011;69208;47.502;18.940;2023-10-19T06:14:56;21.30;;;18.25;;
65755;SDS011;69208;47.502;18.940;2023-10-19T06:16:02;22.00;;;19.12;;
65755;SDS011;69208;47.502;18.940;2023-10-19T06:17:06;23.65;;;18.70;;
65755;SDS011;69208;47.502;18.940;2023-10-19T06:18:09;24.42;;;19.25;;
65755;SDS011;69208;47.502;18.940;2023-10-19T06:19:13;21.70;;;17.87;;
65755;SDS011;69208;47.502;18.940;2023-10-19T06:20:16;25.42;;;18.85;;
65755;SDS011;69208;47.502;18.940;2023-10-19T06:21:26;23.73;;;17.48;;